createdAt,value
2019-02-04T00:00:42.112Z,61.93
2019-02-04T00:03:12.007Z,61.96
2019-02-04T00:05:40.052Z,61.96
2019-02-04T00:08:08.148Z,61.98
2019-02-04T00:10:36.277Z,62.00
2019-02-04T00:13:05.162Z,62.02
2019-02-04T00:15:33.276Z,62.04
2019-02-04T00:18:01.336Z,62.03
2019-02-04T00:20:29.743Z,62.02
2019-02-04T00:22:57.945Z,62.00
2019-02-04T00:25:26.388Z,62.00
2019-02-04T00:27:55.432Z,62.03
2019-02-04T00:30:23.924Z,62.03
2019-02-04T00:32:53.058Z,62.06
2019-02-04T00:35:21.113Z,62.04
2019-02-04T00:37:49.153Z,62.05
2019-02-04T00:40:17.935Z,62.04
2019-02-04T00:42:46.416Z,62.03
2019-02-04T00:45:14.851Z,62.04
2019-02-04T00:47:42.930Z,62.04
2019-02-04T00:50:11.464Z,62.03
2019-02-04T00:52:39.505Z,62.07
2019-02-04T00:55:08.107Z,62.09
2019-02-04T00:57:36.195Z,62.09
2019-02-04T01:00:08.433Z,62.08
2019-02-04T01:02:36.541Z,62.11
2019-02-04T01:05:06.508Z,62.11
2019-02-04T01:07:34.572Z,62.16
2019-02-04T01:10:03.434Z,62.21
2019-02-04T01:12:31.485Z,62.25
2019-02-04T01:14:59.525Z,62.27
2019-02-04T01:17:27.599Z,62.26
2019-02-04T01:19:55.661Z,62.29
2019-02-04T01:22:23.737Z,62.31
2019-02-04T01:24:51.791Z,62.33
2019-02-04T01:27:19.847Z,62.33
2019-02-04T01:29:48.230Z,62.36
2019-02-04T01:32:16.271Z,62.33
2019-02-04T01:34:44.580Z,62.35
2019-02-04T01:37:12.675Z,62.37
2019-02-04T01:39:40.710Z,62.37
2019-02-04T01:42:08.775Z,62.36
2019-02-04T01:44:37.562Z,62.39
2019-02-04T01:47:14.478Z,62.39
2019-02-04T01:49:35.652Z,62.38
2019-02-04T01:52:03.713Z,62.38
2019-02-04T01:54:31.768Z,62.38
2019-02-04T01:56:59.829Z,62.37
2019-02-04T01:59:29.051Z,62.39
2019-02-04T02:01:57.125Z,62.39
2019-02-04T02:04:25.167Z,62.39
2019-02-04T02:06:53.187Z,62.40
2019-02-04T02:09:24.221Z,62.42
2019-02-04T02:11:52.385Z,62.42
2019-02-04T02:14:20.964Z,62.40
2019-02-04T02:16:48.924Z,62.42
2019-02-04T02:19:17.385Z,62.39
2019-02-04T02:21:45.322Z,62.37
2019-02-04T02:24:13.360Z,62.42
2019-02-04T02:26:41.373Z,62.45
2019-02-04T02:29:09.894Z,62.45
2019-02-04T02:31:37.887Z,62.41
2019-02-04T02:34:05.921Z,62.40
2019-02-04T02:36:34.315Z,62.36
2019-02-04T02:39:04.431Z,62.37
2019-02-04T02:41:32.429Z,62.37
2019-02-04T02:44:00.603Z,62.36
2019-02-04T02:46:28.963Z,62.33
2019-02-04T02:48:56.978Z,62.36
2019-02-04T02:51:24.979Z,62.37
2019-02-04T02:53:53.094Z,62.39
2019-02-04T02:56:21.119Z,62.40
2019-02-04T02:58:49.170Z,62.41
2019-02-04T03:01:17.214Z,62.45
2019-02-04T03:03:45.266Z,62.41
2019-02-04T03:06:13.300Z,62.45
2019-02-04T03:08:41.407Z,62.47
2019-02-04T03:11:09.451Z,62.48
2019-02-04T03:13:37.493Z,62.50
2019-02-04T03:16:05.774Z,62.57
2019-02-04T03:18:34.136Z,62.60
2019-02-04T03:21:02.160Z,62.60
2019-02-04T03:23:30.192Z,62.62
2019-02-04T03:25:58.259Z,62.63
2019-02-04T03:28:26.327Z,62.63
2019-02-04T03:30:54.357Z,62.63
2019-02-04T03:33:22.779Z,62.69
2019-02-04T03:35:51.152Z,62.73
2019-02-04T03:38:19.193Z,62.76
2019-02-04T03:40:47.277Z,62.81
2019-02-04T03:43:15.469Z,62.83
2019-02-04T03:45:43.911Z,62.83
2019-02-04T03:48:11.956Z,62.82
2019-02-04T03:50:39.993Z,62.79
2019-02-04T03:53:08.035Z,62.80
2019-02-04T03:55:36.041Z,62.82
2019-02-04T03:58:04.212Z,62.84
2019-02-04T04:00:34.500Z,62.84
2019-02-04T04:03:02.711Z,62.85
2019-02-04T04:05:30.580Z,62.82
2019-02-04T04:07:58.804Z,62.83
2019-02-04T04:10:26.841Z,62.82
2019-02-04T04:12:54.874Z,62.80
2019-02-04T04:15:23.175Z,62.80
2019-02-04T04:17:51.440Z,62.79
2019-02-04T04:20:19.855Z,62.85
2019-02-04T04:22:47.931Z,62.82
2019-02-04T04:25:15.996Z,62.85
2019-02-04T04:27:45.806Z,62.86
2019-02-04T04:30:23.964Z,62.84
2019-02-04T04:32:53.445Z,62.85
2019-02-04T04:35:21.539Z,62.86
2019-02-04T04:37:51.697Z,62.86
2019-02-04T04:40:21.355Z,62.87
2019-02-04T04:42:49.472Z,62.90
2019-02-04T04:45:20.479Z,62.94
2019-02-04T04:47:49.010Z,62.98
2019-02-04T04:50:17.503Z,62.99
2019-02-04T04:52:45.608Z,62.98
2019-02-04T04:55:17.775Z,62.96
2019-02-04T04:57:46.164Z,63.02
2019-02-04T05:00:18.697Z,63.04
2019-02-04T05:02:46.955Z,63.07
2019-02-04T05:05:15.221Z,63.08
2019-02-04T05:07:43.396Z,63.05
2019-02-04T05:10:14.850Z,63.05
2019-02-04T05:12:42.888Z,63.07
2019-02-04T05:15:22.980Z,63.11
2019-02-04T05:17:52.679Z,63.13
2019-02-04T05:20:21.574Z,63.15
2019-02-04T05:22:49.664Z,63.17
2019-02-04T05:25:19.233Z,63.17
2019-02-04T05:27:47.486Z,63.18
2019-02-04T05:30:18.377Z,63.19
2019-02-04T05:32:46.450Z,63.21
2019-02-04T05:35:14.869Z,63.18
2019-02-04T05:37:43.499Z,63.20
2019-02-04T05:40:13.511Z,63.19
2019-02-04T05:42:43.418Z,63.19
2019-02-04T05:45:13.399Z,63.19
2019-02-04T05:47:41.483Z,63.19
2019-02-04T05:50:12.918Z,63.21
2019-02-04T05:52:40.945Z,63.26
2019-02-04T05:55:10.226Z,63.29
2019-02-04T05:57:38.764Z,63.31
2019-02-04T06:00:10.929Z,63.32
2019-02-04T06:02:40.546Z,63.33
2019-02-04T06:05:10.264Z,63.31
2019-02-04T06:07:38.468Z,63.31
2019-02-04T06:10:08.098Z,63.31
2019-02-04T06:12:36.301Z,63.31
2019-02-04T06:15:06.133Z,63.30
2019-02-04T06:17:35.745Z,63.34
2019-02-04T06:20:06.963Z,63.37
2019-02-04T06:22:35.073Z,63.38
2019-02-04T06:25:04.329Z,63.38
2019-02-04T06:27:32.394Z,63.39
2019-02-04T06:30:00.659Z,63.40
2019-02-04T06:32:29.217Z,63.41
2019-02-04T06:37:26.873Z,63.41
2019-02-04T06:42:24.275Z,63.44
2019-02-04T06:44:52.656Z,63.44
2019-02-04T06:47:21.180Z,63.46
2019-02-04T06:49:49.228Z,63.46
2019-02-04T06:52:18.979Z,63.43
2019-02-04T06:54:47.155Z,63.45
2019-02-04T06:57:15.989Z,63.49
2019-02-04T06:59:44.569Z,63.49
2019-02-04T07:02:12.656Z,63.48
2019-02-04T07:04:40.695Z,63.54
2019-02-04T07:07:08.797Z,63.56
2019-02-04T07:09:37.559Z,63.56
2019-02-04T07:12:05.803Z,63.57
2019-02-04T07:14:34.012Z,63.58
2019-02-04T07:17:02.109Z,63.59
2019-02-04T07:19:30.183Z,63.62
2019-02-04T07:21:58.261Z,63.63
2019-02-04T07:24:27.401Z,63.66
2019-02-04T07:26:55.443Z,63.68
2019-02-04T07:29:25.132Z,63.71
2019-02-04T07:31:53.200Z,63.69
2019-02-04T07:34:21.740Z,63.69
2019-02-04T07:36:51.010Z,63.70
2019-02-04T07:39:19.255Z,63.70
2019-02-04T07:41:47.325Z,63.70
2019-02-04T07:44:15.498Z,63.66
2019-02-04T07:46:43.892Z,63.62
2019-02-04T07:49:11.897Z,63.56
2019-02-04T07:51:41.558Z,63.43
2019-02-04T07:54:11.468Z,63.29
2019-02-04T07:56:39.749Z,63.13
2019-02-04T07:59:07.791Z,62.97
2019-02-04T08:01:39.245Z,62.76
2019-02-04T08:04:07.478Z,62.60
2019-02-04T08:06:35.539Z,62.44
2019-02-04T08:09:07.755Z,62.19
2019-02-04T08:11:38.045Z,61.97
2019-02-04T08:14:07.417Z,61.72
2019-02-04T08:16:35.631Z,61.47
2019-02-04T08:19:03.973Z,61.28
2019-02-04T08:21:32.074Z,61.01
2019-02-04T08:24:00.179Z,60.75
2019-02-04T08:26:28.306Z,60.52
2019-02-04T08:28:56.669Z,60.27
2019-02-04T08:31:24.938Z,60.09
2019-02-04T08:33:53.031Z,59.92
2019-02-04T08:36:21.065Z,59.73
2019-02-04T08:38:50.434Z,59.56
2019-02-04T08:41:19.285Z,59.39
2019-02-04T08:43:47.410Z,59.25
2019-02-04T08:46:16.838Z,59.15
2019-02-04T08:48:44.887Z,58.97
2019-02-04T08:51:12.920Z,58.91
2019-02-04T08:53:41.086Z,58.76
2019-02-04T08:56:09.103Z,58.57
2019-02-04T08:58:37.352Z,58.25
2019-02-04T09:01:05.909Z,58.09
2019-02-04T09:03:33.912Z,58.00
2019-02-04T09:06:01.882Z,57.82
2019-02-04T09:08:30.357Z,57.48
2019-02-04T09:10:58.413Z,57.20
2019-02-04T09:13:26.460Z,56.90
2019-02-04T09:15:54.577Z,56.65
2019-02-04T09:18:22.699Z,56.54
2019-02-04T09:20:50.723Z,56.40
2019-02-04T09:23:18.779Z,56.26
2019-02-04T09:25:46.799Z,56.12
2019-02-04T09:28:14.906Z,55.90
2019-02-04T09:30:42.979Z,55.62
2019-02-04T09:33:11.049Z,55.46
2019-02-04T09:35:39.085Z,55.31
2019-02-04T09:38:07.695Z,54.94
2019-02-04T09:40:44.918Z,54.51
2019-02-04T09:43:13.101Z,54.13
2019-02-04T09:45:43.092Z,54.04
2019-02-04T09:48:16.271Z,53.65
2019-02-04T09:50:45.196Z,53.15
2019-02-04T09:53:13.259Z,52.79
2019-02-04T09:55:41.301Z,52.79
2019-02-04T09:58:09.339Z,52.66
2019-02-04T10:00:37.520Z,52.19
2019-02-04T10:03:05.685Z,51.65
2019-02-04T10:05:34.664Z,51.19
2019-02-04T10:08:03.521Z,50.75
2019-02-04T10:10:31.562Z,50.44
2019-02-04T10:12:59.795Z,50.37
2019-02-04T10:15:31.551Z,50.24
2019-02-04T10:18:00.584Z,49.86
2019-02-04T10:20:34.306Z,49.79
2019-02-04T10:22:59.780Z,50.07
2019-02-04T10:25:31.025Z,50.29
2019-02-04T10:27:59.109Z,50.61
2019-02-04T10:30:27.300Z,50.93
2019-02-04T10:32:55.393Z,51.03
2019-02-04T10:35:24.406Z,51.29
2019-02-04T10:37:52.899Z,51.41
2019-02-04T10:40:23.066Z,51.45
2019-02-04T10:42:52.168Z,51.45
2019-02-04T10:45:20.397Z,51.23
2019-02-04T10:47:48.637Z,51.01
2019-02-04T10:50:25.663Z,50.87
2019-02-04T10:52:54.252Z,50.69
2019-02-04T10:55:22.354Z,50.46
2019-02-04T10:57:50.465Z,50.35
2019-02-04T11:00:21.928Z,50.09
2019-02-04T11:02:50.231Z,49.89
2019-02-04T11:05:22.361Z,49.59
2019-02-04T11:07:50.675Z,49.54
2019-02-04T11:10:21.500Z,49.38
2019-02-04T11:12:50.030Z,49.23
2019-02-04T11:15:18.152Z,49.20
2019-02-04T11:17:46.852Z,49.10
2019-02-04T11:20:22.444Z,48.83
2019-02-04T11:22:50.656Z,48.78
2019-02-04T11:25:18.951Z,48.66
2019-02-04T11:27:47.086Z,48.54
2019-02-04T11:30:22.531Z,48.66
2019-02-04T11:32:50.979Z,48.87
2019-02-04T11:35:19.078Z,48.77
2019-02-04T11:37:47.471Z,48.87
2019-02-04T11:40:32.657Z,48.76
2019-02-04T11:43:00.749Z,48.60
2019-02-04T11:45:29.587Z,48.42
2019-02-04T11:47:57.792Z,48.46
2019-02-04T11:50:25.877Z,49.15
2019-02-04T11:52:53.916Z,49.56
2019-02-04T11:55:22.367Z,49.91
2019-02-04T11:57:50.431Z,49.59
2019-02-04T12:00:21.772Z,49.18
2019-02-04T12:02:50.666Z,49.40
2019-02-04T12:05:20.044Z,49.65
2019-02-04T12:07:48.607Z,49.39
2019-02-04T12:10:20.828Z,49.17
2019-02-04T12:12:49.257Z,48.88
2019-02-04T12:15:19.327Z,48.74
2019-02-04T12:17:47.570Z,48.74
2019-02-04T12:20:16.622Z,48.47
2019-02-04T12:22:45.290Z,48.16
2019-02-04T12:25:16.365Z,48.27
2019-02-04T12:27:44.792Z,48.14
2019-02-04T12:30:24.634Z,48.32
2019-02-04T12:32:52.719Z,48.30
2019-02-04T12:35:20.824Z,48.13
2019-02-04T12:37:49.192Z,47.65
2019-02-04T12:40:17.685Z,47.69
2019-02-04T12:42:45.734Z,47.87
2019-02-04T12:45:19.205Z,47.86
2019-02-04T12:47:47.423Z,47.49
2019-02-04T12:50:15.531Z,46.87
2019-02-04T12:52:43.749Z,46.33
2019-02-04T12:55:15.511Z,45.95
2019-02-04T12:57:44.639Z,45.88
2019-02-04T13:00:17.424Z,45.49
2019-02-04T13:02:45.443Z,45.43
2019-02-04T13:05:20.809Z,45.11
2019-02-04T13:07:48.999Z,44.57
2019-02-04T13:10:17.496Z,44.13
2019-02-04T13:12:45.645Z,43.70
2019-02-04T13:15:17.489Z,43.35
2019-02-04T13:17:45.772Z,43.05
2019-02-04T13:20:17.523Z,42.72
2019-02-04T13:22:45.574Z,42.31
2019-02-04T13:25:19.465Z,42.18
2019-02-04T13:27:47.661Z,42.12
2019-02-04T13:30:17.913Z,41.92
2019-02-04T13:32:46.009Z,41.62
2019-02-04T13:35:15.500Z,41.31
2019-02-04T13:37:43.705Z,40.91
2019-02-04T13:40:16.902Z,40.38
2019-02-04T13:42:44.921Z,40.04
2019-02-04T13:45:15.472Z,40.00
2019-02-04T13:47:43.905Z,40.24
2019-02-04T13:50:12.632Z,40.28
2019-02-04T13:52:40.725Z,40.43
2019-02-04T13:55:12.674Z,40.32
2019-02-04T13:57:41.404Z,40.05
2019-02-04T14:00:12.280Z,39.76
2019-02-04T14:02:40.917Z,39.50
2019-02-04T14:05:09.330Z,39.49
2019-02-04T14:07:39.499Z,39.24
2019-02-04T14:10:15.891Z,39.16
2019-02-04T14:12:45.557Z,39.23
2019-02-04T14:15:15.103Z,39.37
2019-02-04T14:17:43.146Z,39.55
2019-02-04T14:20:15.220Z,39.65
2019-02-04T14:22:45.395Z,39.69
2019-02-04T14:25:14.515Z,39.62
2019-02-04T14:27:42.979Z,39.57
2019-02-04T14:30:16.141Z,39.62
2019-02-04T14:32:44.148Z,39.72
2019-02-04T14:35:12.397Z,39.58
2019-02-04T14:37:45.047Z,39.37
2019-02-04T14:40:18.470Z,39.22
2019-02-04T14:42:45.568Z,39.27
2019-02-04T14:46:12.686Z,39.42
2019-02-04T14:49:22.464Z,39.58
2019-02-04T14:52:50.827Z,39.54
2019-02-04T14:56:08.147Z,39.34
2019-02-04T14:59:13.353Z,39.17
2019-02-04T15:02:32.056Z,39.03
2019-02-04T15:05:25.913Z,39.11
2019-02-04T15:08:50.692Z,39.29
2019-02-04T15:12:36.823Z,39.48
2019-02-04T15:15:49.136Z,39.78
2019-02-04T15:19:05.706Z,40.21
2019-02-04T15:22:33.588Z,40.69
2019-02-04T15:26:03.220Z,41.17
2019-02-04T15:29:46.181Z,41.35
2019-02-04T15:33:12.382Z,41.38
2019-02-04T15:36:21.813Z,41.45
2019-02-04T15:40:05.103Z,41.58
2019-02-04T15:43:44.859Z,41.64
2019-02-04T15:46:40.729Z,41.81
2019-02-04T15:50:10.132Z,42.00
2019-02-04T15:52:45.715Z,42.08
2019-02-04T15:55:13.754Z,42.28
2019-02-04T15:57:42.778Z,42.39
2019-02-04T16:00:12.561Z,42.47
2019-02-04T16:02:41.789Z,42.54
2019-02-04T16:05:10.081Z,42.61
2019-02-04T16:07:40.909Z,42.75
2019-02-04T16:10:13.190Z,42.95
2019-02-04T16:12:41.244Z,43.08
2019-02-04T16:15:11.569Z,43.19
2019-02-04T16:17:40.235Z,43.31
2019-02-04T16:20:18.103Z,43.39
2019-02-04T16:22:57.483Z,43.45
2019-02-04T16:25:16.778Z,43.55
2019-02-04T16:27:47.107Z,43.62
2019-02-04T16:30:20.124Z,43.62
2019-02-04T16:32:48.234Z,43.68
2019-02-04T16:35:17.922Z,43.72
2019-02-04T16:37:47.639Z,43.77
2019-02-04T16:40:18.420Z,43.81
2019-02-04T16:42:46.883Z,43.87
2019-02-04T16:45:16.685Z,43.94
2019-02-04T16:47:44.784Z,44.01
2019-02-04T16:50:17.769Z,44.09
2019-02-04T16:52:48.093Z,44.18
2019-02-04T16:55:15.877Z,44.25
2019-02-04T16:57:44.108Z,44.37
2019-02-04T17:00:19.230Z,44.47
2019-02-04T17:02:47.788Z,44.57
2019-02-04T17:05:16.402Z,44.65
2019-02-04T17:07:44.633Z,44.75
2019-02-04T17:10:17.562Z,44.83
2019-02-04T17:12:47.151Z,44.95
2019-02-04T17:15:15.519Z,45.12
2019-02-04T17:17:44.079Z,45.29
2019-02-04T17:20:17.159Z,45.45
2019-02-04T17:22:45.324Z,45.62
2019-02-04T17:25:13.475Z,45.75
2019-02-04T17:27:42.398Z,45.88
2019-02-04T17:30:15.197Z,46.01
2019-02-04T17:32:43.298Z,46.12
2019-02-04T17:35:12.456Z,46.24
2019-02-04T17:37:41.519Z,46.31
2019-02-04T17:40:13.903Z,46.39
2019-02-04T17:42:41.654Z,46.49
2019-02-04T17:45:11.391Z,46.60
2019-02-04T17:47:39.359Z,46.73
2019-02-04T17:50:08.748Z,46.81
2019-02-04T17:52:36.500Z,46.92
2019-02-04T17:55:08.861Z,47.01
2019-02-04T17:57:36.552Z,47.11
2019-02-04T18:00:08.441Z,47.18
2019-02-04T18:02:36.261Z,47.24
2019-02-04T18:05:05.102Z,47.33
2019-02-04T18:07:32.890Z,47.42
2019-02-04T18:10:00.670Z,47.49
2019-02-04T18:12:28.604Z,47.60
2019-02-04T18:14:56.508Z,47.67
2019-02-04T18:17:24.485Z,47.74
2019-02-04T18:19:52.140Z,47.78
2019-02-04T18:22:20.149Z,47.83
2019-02-04T18:24:48.318Z,47.87
2019-02-04T18:27:15.874Z,47.94
2019-02-04T18:29:44.153Z,48.00
2019-02-04T18:32:13.230Z,48.04
2019-02-04T18:34:40.732Z,48.10
2019-02-04T18:37:08.586Z,48.14
2019-02-04T18:39:36.173Z,48.24
2019-02-04T18:42:04.053Z,48.34
2019-02-04T18:44:31.900Z,48.40
2019-02-04T18:46:59.529Z,48.43
2019-02-04T18:49:27.225Z,48.49
2019-02-04T18:51:54.851Z,48.57
2019-02-04T18:54:23.075Z,48.59
2019-02-04T18:56:50.789Z,48.67
2019-02-04T18:59:18.650Z,48.71
2019-02-04T19:01:46.314Z,48.75
2019-02-04T19:04:15.601Z,48.74
2019-02-04T19:06:47.682Z,48.77
2019-02-04T19:09:13.751Z,48.82
2019-02-04T19:11:43.872Z,48.87
2019-02-04T19:14:11.682Z,48.95
2019-02-04T19:16:41.423Z,48.99
2019-02-04T19:19:09.183Z,49.03
2019-02-04T19:21:38.297Z,49.08
2019-02-04T19:24:09.721Z,49.12
2019-02-04T19:26:35.721Z,49.16
2019-02-04T19:29:03.759Z,49.23
2019-02-04T19:31:31.382Z,49.30
2019-02-04T19:33:59.069Z,49.37
2019-02-04T19:36:31.062Z,49.47
2019-02-04T19:39:00.307Z,49.55
2019-02-04T19:41:28.103Z,49.61
2019-02-04T19:43:55.577Z,49.65
2019-02-04T19:46:23.218Z,49.72
2019-02-04T19:48:51.247Z,49.78
2019-02-04T19:54:05.546Z,49.83
2019-02-04T19:56:33.137Z,49.89
2019-02-04T19:59:02.027Z,49.96
2019-02-04T20:01:29.595Z,50.02
2019-02-04T20:03:57.598Z,50.06
2019-02-04T20:06:25.159Z,50.09
2019-02-04T20:08:52.875Z,50.12
2019-02-04T20:11:20.754Z,50.16
2019-02-04T20:13:48.239Z,50.22
2019-02-04T20:16:15.997Z,50.27
2019-02-04T20:18:43.523Z,50.31
2019-02-04T20:21:12.535Z,50.35
2019-02-04T20:23:40.139Z,50.39
2019-02-04T20:26:34.669Z,50.41
2019-02-04T20:29:02.429Z,50.44
2019-02-04T20:31:30.488Z,50.45
2019-02-04T20:33:59.368Z,50.48
2019-02-04T20:36:26.899Z,50.55
2019-02-04T20:38:54.634Z,50.58
2019-02-04T20:41:22.186Z,50.62
2019-02-04T20:43:49.846Z,50.65
2019-02-04T20:46:17.769Z,50.69
2019-02-04T20:48:46.831Z,50.73
2019-02-04T20:51:28.138Z,50.75
2019-02-04T20:53:58.329Z,50.78
2019-02-04T20:56:26.116Z,50.77
2019-02-04T20:59:01.162Z,50.82
2019-02-04T21:01:39.483Z,50.85
2019-02-04T21:04:07.158Z,50.86
2019-02-04T21:06:35.186Z,50.90
2019-02-04T21:09:09.315Z,50.92
2019-02-04T21:11:37.100Z,50.95
2019-02-04T21:14:05.358Z,50.98
2019-02-04T21:27:35.915Z,51.01
2019-02-04T21:30:17.460Z,51.08
2019-02-04T21:32:47.523Z,51.13
2019-02-04T21:35:15.337Z,51.17
2019-02-04T21:37:45.030Z,51.20
2019-02-04T21:40:13.139Z,51.24
2019-02-04T21:42:40.781Z,51.25
2019-02-04T21:45:11.543Z,51.26
2019-02-04T21:47:40.194Z,51.31
2019-02-04T21:50:12.145Z,51.33
2019-02-04T21:52:39.826Z,51.38
2019-02-04T21:55:08.910Z,51.40
2019-02-04T21:57:36.622Z,51.44
2019-02-04T22:00:08.715Z,51.46
2019-02-04T22:02:36.452Z,51.50
2019-02-04T22:05:07.468Z,51.50
2019-02-04T22:07:35.235Z,51.52
2019-02-04T22:10:05.209Z,51.54
2019-02-04T22:12:33.006Z,51.57
2019-02-04T22:15:00.491Z,51.57
2019-02-04T22:17:28.405Z,51.60
2019-02-04T22:19:55.892Z,51.64
2019-02-04T22:22:23.709Z,51.65
2019-02-04T22:24:51.130Z,51.65
2019-02-04T22:27:19.057Z,51.69
2019-02-04T22:29:46.423Z,51.71
2019-02-04T22:32:13.908Z,51.72
2019-02-04T22:34:41.600Z,51.77
2019-02-04T22:37:09.206Z,51.82
2019-02-04T22:39:36.591Z,51.85
2019-02-04T22:42:04.312Z,51.87
2019-02-04T22:44:31.954Z,51.89
2019-02-04T22:46:59.568Z,51.88
2019-02-04T22:49:26.946Z,51.87
2019-02-04T22:51:54.455Z,51.90
2019-02-04T22:54:22.024Z,51.90
2019-02-04T22:56:49.561Z,51.95
2019-02-04T22:59:17.148Z,51.96
2019-02-04T23:01:51.533Z,52.00
2019-02-04T23:04:20.477Z,52.01
2019-02-04T23:06:48.079Z,52.05
2019-02-04T23:09:15.610Z,52.06
2019-02-04T23:11:44.694Z,52.07
2019-02-04T23:14:12.522Z,52.10
2019-02-04T23:16:40.058Z,52.12
2019-02-04T23:19:07.731Z,52.17
2019-02-04T23:21:35.734Z,52.21
2019-02-04T23:24:05.910Z,52.21
2019-02-04T23:26:33.555Z,52.23
2019-02-04T23:29:01.331Z,52.21
2019-02-04T23:31:29.050Z,52.26
2019-02-04T23:33:56.527Z,52.29
2019-02-04T23:36:24.038Z,52.32
2019-02-04T23:38:51.657Z,52.30
2019-02-04T23:41:19.278Z,52.31
2019-02-04T23:43:47.141Z,52.33
2019-02-04T23:46:14.794Z,52.36
2019-02-04T23:48:42.397Z,52.39
2019-02-04T23:51:10.116Z,52.43
2019-02-04T23:53:37.514Z,52.45
2019-02-04T23:56:05.192Z,52.49
2019-02-04T23:58:32.797Z,52.50
